Dzalinda, Russia
Current Conditions -  °F | °C
As of 12:00 AM on Tuesday 25 Nov 2014 (Local Time) from UHBB Reporting Station
Clear Clear  
Wind Chill: -2°   Ceiling: Unl
Heat Index:   Visibility: 6mi
Dew Point:   Wind: 4mph
Humidity: 85%   Direction: 210°SSW
Pressure: 30.18"   Gusts: NA
Location:  53.47°N, 123.9°E
Report Text: UHBB 241500Z 21002MPS 160V250 CAVOK M14/M16 Q1022 NOSIG RMKQFE749/0998 36810350
Loading
Personal Weather Stations






























Interactive Weather Map New forecast layout! Learn more

10-Day Weather Forecast

Advertisements
Track Severe Weather on mobile